Grisdale, Washington
Current Conditions -  °F | °C
As of 8:53 AM on Wednesday 22 Oct 2014 (Local Time) from KSHN Reporting Station
Moderate Rain Moderate Rain  
Wind Chill: 54°   Ceiling: 1500
Heat Index: 54°   Visibility: 2mi
Dew Point: 53°   Wind: 6mph
Humidity: 97%   Direction: 140°SE
Pressure: 29.68"   Gusts: NA
Location:  47.555°N, 123.746°W
Report Text: KSHN 221553Z AUTO 14005KT 2SM RA BR FEW011 BKN015 OVC022 12/12 A2968 RMK AO2 SLP050 P0015 T01220117 TSNO
Loading
Personal Weather Stations






























Interactive Weather Map
Tropical Storm Tracking
New forecast layout! Learn more

10-Day Weather Forecast

Advertisements
Track Severe Weather on mobile